createdAt,value
2019-03-22T00:03:50.678Z,22.13
2019-03-22T00:08:55.465Z,21.27
2019-03-22T00:14:00.165Z,18.20
2019-03-22T00:19:04.894Z,21.20
2019-03-22T00:24:09.544Z,25.30
2019-03-22T00:29:14.186Z,22.77
2019-03-22T00:34:18.928Z,22.97
2019-03-22T00:39:24.537Z,21.47
2019-03-22T00:44:29.240Z,22.07
2019-03-22T00:49:33.977Z,23.23
2019-03-22T00:54:38.615Z,22.20
2019-03-22T00:59:43.360Z,21.03
2019-03-22T01:04:48.102Z,20.97
2019-03-22T01:09:52.843Z,26.47
2019-03-22T01:14:57.474Z,19.93
2019-03-22T01:20:02.132Z,21.83
2019-03-22T01:25:07.207Z,20.93
2019-03-22T01:30:18.474Z,22.70
2019-03-22T01:35:23.217Z,22.90
2019-03-22T01:40:28.940Z,21.90
2019-03-22T01:45:33.826Z,22.00
2019-03-22T01:50:38.568Z,22.30
2019-03-22T01:55:43.310Z,22.13
2019-03-22T02:00:47.962Z,22.00
2019-03-22T02:05:52.697Z,22.47
2019-03-22T02:10:57.334Z,22.13
2019-03-22T02:16:02.076Z,21.37
2019-03-22T02:21:06.636Z,22.50
2019-03-22T02:26:11.358Z,24.73
2019-03-22T02:31:15.998Z,23.70
2019-03-22T02:36:22.176Z,22.63
2019-03-22T02:41:26.928Z,22.97
2019-03-22T02:46:31.562Z,24.97
2019-03-22T02:51:36.301Z,28.50
2019-03-22T02:56:42.068Z,24.63
2019-03-22T03:01:46.717Z,25.87
2019-03-22T03:06:51.352Z,27.57
2019-03-22T03:11:57.018Z,34.93
2019-03-22T03:17:01.756Z,32.80
2019-03-22T03:22:06.390Z,31.77
2019-03-22T03:27:11.244Z,33.20
2019-03-22T03:32:15.992Z,31.87
2019-03-22T03:37:20.735Z,30.50
2019-03-22T03:42:25.469Z,30.17
2019-03-22T03:47:30.124Z,31.27
2019-03-22T03:52:34.752Z,30.90
2019-03-22T03:57:39.497Z,30.17
2019-03-22T04:02:44.340Z,31.73
2019-03-22T04:07:48.983Z,33.83
2019-03-22T04:12:53.721Z,33.87
2019-03-22T04:17:58.361Z,36.00
2019-03-22T04:23:04.656Z,34.00
2019-03-22T04:28:09.388Z,32.77
2019-03-22T04:33:15.139Z,36.90
2019-03-22T04:38:19.998Z,33.70
2019-03-22T04:43:26.075Z,37.30
2019-03-22T04:48:32.616Z,37.00
2019-03-22T04:53:40.383Z,34.27
2019-03-22T04:58:46.803Z,35.27
2019-03-22T05:03:51.287Z,35.80
2019-03-22T05:08:56.031Z,39.67
2019-03-22T05:14:00.669Z,40.63
2019-03-22T05:19:06.644Z,37.27
2019-03-22T05:24:11.385Z,43.37
2019-03-22T05:29:16.139Z,44.13
2019-03-22T05:34:20.764Z,44.30
2019-03-22T05:39:25.512Z,55.83
2019-03-22T05:44:30.171Z,111.23
2019-03-22T05:49:34.898Z,69.57
2019-03-22T05:54:39.741Z,69.17
2019-03-22T05:59:44.481Z,46.47
2019-03-22T06:04:49.230Z,37.00
2019-03-22T06:09:53.974Z,30.47
2019-03-22T06:14:58.711Z,34.57
2019-03-22T06:20:04.275Z,31.33
2019-03-22T06:25:09.131Z,34.03
2019-03-22T06:30:13.769Z,28.90
2019-03-22T06:35:18.500Z,32.97
2019-03-22T06:40:23.141Z,34.80
2019-03-22T06:45:27.781Z,40.90
2019-03-22T06:50:32.423Z,45.70
2019-03-22T06:55:37.164Z,43.73
2019-03-22T07:00:42.117Z,40.87
2019-03-22T07:05:47.885Z,36.67
2019-03-22T07:10:52.528Z,36.93
2019-03-22T07:15:57.263Z,35.83
2019-03-22T07:21:02.019Z,38.63
2019-03-22T07:26:06.854Z,34.10
2019-03-22T07:31:11.597Z,36.33
2019-03-22T07:36:16.443Z,36.73
2019-03-22T07:41:21.193Z,35.40
2019-03-22T07:46:25.844Z,32.63
2019-03-22T07:51:30.570Z,30.70
2019-03-22T07:56:35.317Z,29.90
2019-03-22T08:01:40.059Z,27.17
2019-03-22T08:06:44.903Z,24.90
2019-03-22T08:11:49.654Z,26.90
2019-03-22T08:16:54.283Z,24.20
2019-03-22T08:21:59.033Z,24.20
2019-03-22T08:27:03.797Z,21.53
2019-03-22T08:32:08.617Z,19.50
2019-03-22T08:37:13.370Z,20.10
2019-03-22T08:42:18.122Z,14.53
2019-03-22T08:47:33.257Z,14.50
2019-03-22T08:52:29.246Z,15.80
2019-03-22T08:57:33.882Z,15.53
2019-03-22T09:02:38.622Z,14.43
2019-03-22T09:07:43.409Z,13.10
2019-03-22T09:12:48.204Z,14.23
2019-03-22T09:17:53.063Z,18.50
2019-03-22T09:22:57.793Z,14.30
2019-03-22T09:28:02.546Z,18.00
2019-03-22T09:33:08.817Z,13.60
2019-03-22T09:38:13.735Z,14.90
2019-03-22T09:43:18.828Z,11.93
2019-03-22T09:48:23.791Z,61.37
2019-03-22T09:53:30.495Z,15.03
2019-03-22T09:58:36.650Z,12.60
2019-03-22T10:03:42.617Z,11.30
2019-03-22T10:08:48.364Z,10.97
2019-03-22T10:13:53.134Z,9.90
2019-03-22T10:18:57.880Z,9.80
2019-03-22T10:24:02.641Z,9.50
2019-03-22T10:29:08.368Z,8.77
2019-03-22T10:34:13.134Z,9.97
2019-03-22T10:39:19.396Z,9.23
2019-03-22T10:44:24.222Z,8.60
2019-03-22T10:49:29.084Z,26.53
2019-03-22T10:54:33.968Z,36.27
2019-03-22T10:59:38.875Z,14.30
2019-03-22T11:04:43.622Z,14.33
2019-03-22T11:09:48.364Z,11.87
2019-03-22T11:14:53.214Z,10.40
2019-03-22T11:19:58.055Z,15.00
2019-03-22T11:25:04.832Z,8.63
2019-03-22T11:30:11.813Z,11.70
2019-03-22T11:35:18.025Z,9.37
2019-03-22T11:40:22.769Z,10.00
2019-03-22T11:45:27.512Z,9.37
2019-03-22T11:50:32.250Z,12.07
2019-03-22T11:55:37.097Z,9.30
2019-03-22T12:00:41.770Z,11.87
2019-03-22T12:05:46.376Z,9.97
2019-03-22T12:10:51.125Z,10.00
2019-03-22T12:15:55.868Z,10.30
2019-03-22T12:21:00.512Z,9.97
2019-03-22T12:26:06.508Z,9.40
2019-03-22T12:31:11.444Z,22.27
2019-03-22T12:36:16.084Z,10.20
2019-03-22T12:41:20.918Z,9.17
2019-03-22T12:46:26.687Z,12.13
2019-03-22T12:51:31.432Z,9.33
2019-03-22T12:56:36.488Z,9.33
2019-03-22T13:01:41.231Z,9.23
2019-03-22T13:06:45.959Z,10.80
2019-03-22T13:11:52.700Z,9.87
2019-03-22T13:16:57.409Z,9.57
2019-03-22T13:22:02.062Z,9.27
2019-03-22T13:27:06.683Z,8.93
2019-03-22T13:32:11.427Z,9.70
2019-03-22T13:37:16.272Z,9.20
2019-03-22T13:42:21.021Z,8.73
2019-03-22T13:47:25.868Z,9.57
2019-03-22T13:52:30.426Z,14.60
2019-03-22T13:57:36.257Z,8.30
2019-03-22T14:02:42.694Z,9.10
2019-03-22T14:07:47.503Z,8.63
2019-03-22T14:12:52.350Z,8.17
2019-03-22T14:17:58.000Z,8.27
2019-03-22T14:23:03.671Z,8.90
2019-03-22T14:28:08.429Z,9.10
2019-03-22T14:33:13.868Z,7.90
2019-03-22T14:38:18.637Z,8.87
2019-03-22T14:43:24.483Z,8.27
2019-03-22T14:48:31.003Z,7.97
2019-03-22T14:53:35.726Z,7.73
2019-03-22T14:58:41.592Z,8.03
2019-03-22T15:03:46.341Z,7.97
2019-03-22T15:08:51.090Z,7.80
2019-03-22T15:14:01.388Z,7.87
2019-03-22T15:19:25.227Z,8.13
2019-03-22T15:24:41.745Z,8.20
2019-03-22T15:29:54.292Z,8.43
2019-03-22T15:35:12.759Z,8.63
2019-03-22T15:40:17.500Z,7.53
2019-03-22T15:45:22.474Z,9.00
2019-03-22T15:50:27.099Z,12.07
2019-03-22T15:55:33.400Z,18.57
2019-03-22T16:00:38.425Z,10.00
2019-03-22T16:05:43.795Z,9.63
2019-03-22T16:10:49.773Z,10.40
2019-03-22T16:15:56.363Z,10.30
2019-03-22T16:21:00.978Z,11.00
2019-03-22T16:26:05.929Z,10.70
2019-03-22T16:31:10.885Z,11.80
2019-03-22T16:36:15.665Z,10.47
2019-03-22T16:41:20.465Z,11.17
2019-03-22T16:46:25.718Z,19.13
2019-03-22T16:51:30.461Z,18.13
2019-03-22T16:56:35.235Z,25.13
2019-03-22T17:01:40.058Z,28.40
2019-03-22T17:06:44.639Z,19.73
2019-03-22T17:11:50.238Z,19.20
2019-03-22T17:16:55.208Z,17.77
2019-03-22T17:21:59.952Z,12.00
2019-03-22T17:27:04.591Z,12.33
2019-03-22T17:32:09.233Z,12.60
2019-03-22T17:37:13.975Z,13.17
2019-03-22T17:42:18.750Z,13.97
2019-03-22T17:47:23.370Z,12.70
2019-03-22T17:52:28.110Z,14.13
2019-03-22T17:57:32.760Z,15.27
2019-03-22T18:02:37.707Z,14.77
2019-03-22T18:07:44.073Z,15.17
2019-03-22T18:12:48.822Z,13.67
2019-03-22T18:17:54.220Z,14.57
2019-03-22T18:22:59.051Z,18.60
2019-03-22T18:28:03.698Z,20.23
2019-03-22T18:33:08.814Z,17.80
2019-03-22T18:38:13.865Z,22.10
2019-03-22T18:43:18.713Z,18.10
2019-03-22T18:48:23.451Z,20.43
2019-03-22T18:53:28.298Z,22.07
2019-03-22T18:58:34.066Z,19.23
2019-03-22T19:03:38.910Z,17.37
2019-03-22T19:08:43.656Z,35.93
2019-03-22T19:13:48.541Z,17.90
2019-03-22T19:18:53.352Z,18.50
2019-03-22T19:23:58.088Z,23.93
2019-03-22T19:29:02.834Z,17.67
2019-03-22T19:34:10.336Z,17.43
2019-03-22T19:39:14.977Z,19.23
2019-03-22T19:44:19.825Z,19.83
2019-03-22T19:49:24.564Z,20.20
2019-03-22T19:54:29.853Z,24.50
2019-03-22T19:59:34.762Z,25.67
2019-03-22T20:04:39.453Z,23.70
2019-03-22T20:09:44.209Z,21.57
2019-03-22T20:14:49.022Z,21.40
2019-03-22T20:19:54.894Z,20.73
2019-03-22T20:24:59.609Z,20.60
2019-03-22T20:30:06.444Z,20.47
2019-03-22T20:35:16.445Z,19.67
2019-03-22T20:40:19.574Z,17.47
2019-03-22T20:45:24.655Z,18.00
2019-03-22T20:50:35.695Z,19.50
2019-03-22T20:55:36.159Z,18.80
2019-03-22T21:00:40.905Z,20.10
2019-03-22T21:05:47.183Z,22.20
2019-03-22T21:10:51.936Z,19.70
2019-03-22T21:15:56.769Z,15.80
2019-03-22T21:21:01.520Z,15.33
2019-03-22T21:26:06.258Z,16.17
2019-03-22T21:31:10.999Z,15.50
2019-03-22T21:36:15.948Z,17.53
2019-03-22T21:41:20.690Z,16.47
2019-03-22T21:46:25.433Z,14.60
2019-03-22T21:51:30.279Z,17.03
2019-03-22T21:56:34.915Z,17.57
2019-03-22T22:01:39.547Z,17.10
2019-03-22T22:06:44.302Z,18.37
2019-03-22T22:11:49.249Z,17.13
2019-03-22T22:16:53.991Z,15.83
2019-03-22T22:21:58.605Z,15.33
2019-03-22T22:27:13.414Z,18.43
2019-03-22T22:32:11.904Z,18.97
2019-03-22T22:37:16.648Z,15.60
2019-03-22T22:42:21.388Z,15.93
2019-03-22T22:47:26.245Z,14.13
2019-03-22T22:52:32.514Z,13.30
2019-03-22T22:57:37.334Z,14.83
2019-03-22T23:02:42.102Z,14.10
2019-03-22T23:07:46.844Z,14.20
2019-03-22T23:12:52.207Z,13.53
2019-03-22T23:17:56.836Z,14.03
2019-03-22T23:23:01.473Z,13.90
2019-03-22T23:28:06.409Z,13.53
2019-03-22T23:33:11.164Z,16.43
2019-03-22T23:38:16.937Z,14.43
2019-03-22T23:43:21.675Z,13.87
2019-03-22T23:48:27.757Z,15.90
2019-03-22T23:53:32.392Z,17.60
2019-03-22T23:58:37.037Z,16.27
